Time;durP1;ratioP1;P1;durP2;ratioP2;P2;SDS_P1;SDS_P2;PMS_P1;PMS_P2;Temp;Humidity;BMP_temperature;BMP_pressure;BME280_temperature;BME280_humidity;BME280_pressure;Samples;Min_cycle;Max_cycle;Signal;HPM_P1;HPM_P2
2024/03/29 00:09:53;;;;;;;1.88;0.32;;;5.90;99.90;;;;;;20507580;29;20035;-40
2024/03/29 00:19:55;;;;;;;1.77;0.28;;;5.80;99.90;;;;;;20488728;28;20039;-40
2024/03/29 00:29:56;;;;;;;8.23;0.52;;;6.30;99.90;;;;;;20488586;29;20048;-39
2024/03/29 00:39:58;;;;;;;4.90;0.30;;;6.40;99.90;;;;;;20505182;29;20039;-40
2024/03/29 00:50:00;;;;;;;3.13;0.43;;;5.80;99.90;;;;;;20474744;29;20089;-40
2024/03/29 01:00:03;;;;;;;5.97;0.80;;;5.30;99.90;;;;;;20504097;29;20035;-42
2024/03/29 01:10:05;;;;;;;5.57;0.55;;;5.60;99.90;;;;;;20502846;29;20030;-40
2024/03/29 01:20:08;;;;;;;5.90;0.65;;;5.60;99.90;;;;;;20502604;29;20042;-41
2024/03/29 01:30:11;;;;;;;5.68;0.95;;;5.50;99.90;;;;;;20501990;28;20047;-40
2024/03/29 01:40:13;;;;;;;6.75;0.77;;;5.30;99.90;;;;;;20483809;29;20031;-40
2024/03/29 01:50:15;;;;;;;7.03;1.00;;;5.30;99.90;;;;;;20500226;29;20039;-39
2024/03/29 02:00:18;;;;;;;8.13;1.20;;;5.70;99.90;;;;;;20500173;29;20039;-42
2024/03/29 02:10:21;;;;;;;6.57;1.00;;;5.50;99.90;;;;;;20499185;29;20094;-39
2024/03/29 02:20:22;;;;;;;8.85;1.13;;;5.60;99.90;;;;;;20481912;29;20090;-39
2024/03/29 02:30:24;;;;;;;7.40;1.00;;;5.60;99.90;;;;;;20481660;29;20055;-39
2024/03/29 02:40:26;;;;;;;12.25;1.52;;;5.60;99.90;;;;;;20486322;28;20039;-40
2024/03/29 02:50:28;;;;;;;6.25;1.13;;;5.60;99.90;;;;;;20484404;29;20035;-39
2024/03/29 03:00:29;;;;;;;9.15;1.20;;;5.80;99.90;;;;;;20513686;29;20042;-40
2024/03/29 03:20:57;;;;;;;8.37;1.03;;;5.70;99.90;;;;;;20509631;29;20102;-43
2024/03/29 03:30:58;;;;;;;10.27;1.33;;;5.50;99.90;;;;;;20488831;29;20442;-42
2024/03/29 03:41:00;;;;;;;6.20;1.10;;;5.40;99.90;;;;;;20482184;29;20038;-40
2024/03/29 03:51:04;;;;;;;6.85;1.13;;;5.30;99.90;;;;;;20471547;28;20043;-40
2024/03/29 04:01:09;;;;;;;5.93;0.88;;;5.20;99.90;;;;;;20508790;29;20031;-42
2024/03/29 04:11:10;;;;;;;9.85;1.15;;;5.00;99.90;;;;;;20463569;29;20369;-42
2024/03/29 04:21:12;;;;;;;6.80;1.42;;;5.00;99.90;;;;;;20496310;29;20054;-42
2024/03/29 04:31:14;;;;;;;7.72;1.08;;;5.10;99.90;;;;;;20506372;29;20078;-40
2024/03/29 04:41:18;;;;;;;4.97;1.10;;;5.10;99.90;;;;;;20488114;29;20640;-40
2024/03/29 04:51:20;;;;;;;7.10;1.27;;;5.30;99.90;;;;;;20487402;29;20359;-42
2024/03/29 05:01:22;;;;;;;6.78;1.10;;;5.30;99.90;;;;;;20503741;28;20035;-40
2024/03/29 05:11:24;;;;;;;9.10;1.38;;;5.30;99.90;;;;;;20503153;29;20443;-42
2024/03/29 05:21:26;;;;;;;7.55;1.17;;;5.70;99.90;;;;;;20501903;29;20055;-42
2024/03/29 05:31:28;;;;;;;7.18;1.10;;;6.00;99.90;;;;;;20502446;29;20035;-41
2024/03/29 05:41:31;;;;;;;6.70;1.30;;;6.10;99.90;;;;;;20499756;29;20042;-41
2024/03/29 05:51:35;;;;;;;7.63;1.45;;;6.20;99.90;;;;;;20471130;29;20094;-41
2024/03/29 06:01:37;;;;;;;5.53;1.40;;;6.10;99.90;;;;;;20501276;29;20459;-41
2024/03/29 06:11:39;;;;;;;5.60;1.17;;;5.80;99.90;;;;;;20499088;29;20055;-43
2024/03/29 06:21:42;;;;;;;4.63;1.08;;;5.50;99.90;;;;;;20481638;29;20055;-44
2024/03/29 06:31:44;;;;;;;8.43;1.67;;;5.30;99.90;;;;;;20489000;29;20087;-41
2024/03/29 06:41:45;;;;;;;8.65;1.70;;;5.10;99.90;;;;;;20477968;29;20398;-43
2024/03/29 06:51:48;;;;;;;6.20;1.20;;;5.00;99.90;;;;;;20497968;29;20035;-42
2024/03/29 07:01:53;;;;;;;7.97;1.48;;;5.00;99.90;;;;;;20492758;29;20036;-46
2024/03/29 07:11:55;;;;;;;6.25;1.58;;;5.10;99.90;;;;;;20477523;29;20042;-45
2024/03/29 07:21:57;;;;;;;8.13;1.30;;;5.10;99.90;;;;;;20436580;29;20359;-41
2024/03/29 07:31:59;;;;;;;4.97;1.10;;;5.20;99.90;;;;;;20507381;28;20106;-43
2024/03/29 07:42:01;;;;;;;5.80;1.20;;;5.30;99.90;;;;;;20501872;29;20352;-43
2024/03/29 07:52:05;;;;;;;6.15;1.00;;;5.40;99.90;;;;;;20451186;29;20039;-42
2024/03/29 08:02:07;;;;;;;3.33;1.08;;;5.50;99.90;;;;;;20508818;29;20050;-40
2024/03/29 08:12:10;;;;;;;3.47;0.63;;;5.50;99.90;;;;;;20438937;29;20043;-41
2024/03/29 08:22:12;;;;;;;4.20;1.30;;;5.60;99.90;;;;;;20443364;29;20051;-41
2024/03/29 08:32:14;;;;;;;8.77;1.40;;;5.70;99.90;;;;;;20490101;29;20035;-43
2024/03/29 08:42:17;;;;;;;7.55;1.52;;;5.70;99.90;;;;;;20488114;28;20035;-43
2024/03/29 08:52:19;;;;;;;7.20;1.45;;;5.90;99.90;;;;;;20503410;29;20390;-42
2024/03/29 09:02:20;;;;;;;6.85;1.83;;;6.00;99.90;;;;;;20495323;29;20040;-44
2024/03/29 09:12:22;;;;;;;11.55;1.75;;;6.10;99.90;;;;;;20480280;29;20032;-44
2024/03/29 09:22:24;;;;;;;9.90;2.00;;;6.30;99.90;;;;;;20461434;29;20051;-45
2024/03/29 09:32:26;;;;;;;10.27;2.92;;;6.50;99.90;;;;;;20441169;29;20094;-45
2024/03/29 09:42:30;;;;;;;9.02;1.60;;;6.90;99.90;;;;;;20436110;29;20040;-42
2024/03/29 09:52:33;;;;;;;9.75;2.40;;;7.50;99.90;;;;;;20444721;29;20035;-42
2024/03/29 10:02:36;;;;;;;10.50;2.13;;;7.40;99.90;;;;;;20500224;29;20043;-46
2024/03/29 10:12:38;;;;;;;47.85;3.42;;;7.10;99.90;;;;;;20462138;29;20071;-43
2024/03/29 10:22:43;;;;;;;44.90;3.95;;;6.90;99.90;;;;;;20443358;29;20344;-41
2024/03/29 10:32:48;;;;;;;50.03;4.68;;;6.80;99.90;;;;;;20434076;29;20039;-46
2024/03/29 10:42:52;;;;;;;205.63;11.15;;;6.80;99.90;;;;;;20430005;29;20031;-43
2024/03/29 10:52:54;;;;;;;105.53;5.65;;;7.00;99.90;;;;;;20475915;29;20110;-43
2024/03/29 11:03:30;;;;;;;146.68;8.50;;;7.20;99.90;;;;;;20496502;28;20067;-41
2024/03/29 11:13:50;;;;;;;12.68;2.85;;;7.50;99.90;;;;;;20450675;29;20090;-41
2024/03/29 11:23:54;;;;;;;13.73;2.90;;;8.20;99.90;;;;;;20476622;29;20482;-46
2024/03/29 11:33:57;;;;;;;8.80;2.03;;;9.70;99.90;;;;;;20268796;29;20103;-44
2024/03/29 11:43:59;;;;;;;8.35;1.83;;;12.20;99.90;;;;;;20341961;29;20048;-45
2024/03/29 11:54:02;;;;;;;10.93;1.77;;;13.00;99.90;;;;;;20313344;29;20508;-48
2024/03/29 12:04:04;;;;;;;7.82;1.48;;;13.60;99.90;;;;;;20474208;29;20256;-47
2024/03/29 12:14:15;;;;;;;8.13;1.45;;;13.90;99.90;;;;;;20500815;28;20051;-44
2024/03/29 12:24:17;;;;;;;10.15;1.55;;;13.70;99.90;;;;;;20451659;29;20052;-45
2024/03/29 12:34:22;;;;;;;6.38;1.48;;;12.80;99.90;;;;;;20423648;29;20050;-41
2024/03/29 12:44:24;;;;;;;5.68;1.80;;;12.60;99.90;;;;;;20504703;29;20039;-43
2024/03/29 12:54:30;;;;;;;12.20;2.00;;;12.20;99.90;;;;;;20486222;29;20031;-44
2024/03/29 13:04:32;;;;;;;9.60;1.65;;;11.50;99.90;;;;;;20494236;29;20078;-42
2024/03/29 13:14:34;;;;;;;14.85;1.70;;;11.40;99.90;;;;;;20464587;29;20083;-43
2024/03/29 13:24:42;;;;;;;8.07;1.67;;;12.40;99.90;;;;;;20462071;28;20071;-41
2024/03/29 13:34:44;;;;;;;8.35;2.00;;;12.70;99.90;;;;;;20457487;29;20035;-44
2024/03/29 13:44:46;;;;;;;8.25;2.10;;;12.80;99.90;;;;;;20487847;29;20036;-41
2024/03/29 13:54:50;;;;;;;11.25;1.73;;;13.60;99.90;;;;;;20445676;29;20038;-45
2024/03/29 14:04:55;;;;;;;9.82;1.67;;;13.70;99.90;;;;;;20254240;29;20041;-44
2024/03/29 14:14:58;;;;;;;8.50;1.42;;;12.90;99.90;;;;;;20251665;29;20045;-43
2024/03/29 14:25:00;;;;;;;7.35;1.80;;;12.40;99.90;;;;;;20177989;29;20489;-45
2024/03/29 14:35:05;;;;;;;9.57;1.77;;;12.70;99.90;;;;;;20267966;29;20087;-46
2024/03/29 14:45:11;;;;;;;10.43;1.88;;;12.80;99.90;;;;;;20434691;29;20040;-43
2024/03/29 14:55:13;;;;;;;9.43;1.95;;;12.50;99.90;;;;;;20404878;29;20040;-44
2024/03/29 15:05:15;;;;;;;9.52;1.80;;;12.50;99.90;;;;;;20415359;29;20043;-43
2024/03/29 15:15:18;;;;;;;8.20;1.63;;;12.30;99.90;;;;;;20428638;29;20103;-44
2024/03/29 15:25:19;;;;;;;11.93;1.60;;;12.30;99.90;;;;;;20464765;29;20047;-42
2024/03/29 15:35:21;;;;;;;11.77;1.38;;;12.40;99.90;;;;;;20490841;29;20403;-43
2024/03/29 15:45:23;;;;;;;8.13;1.45;;;12.00;99.90;;;;;;20475266;29;20059;-41
2024/03/29 15:55:25;;;;;;;5.78;0.98;;;11.60;99.90;;;;;;20477640;29;20149;-41
2024/03/29 16:05:27;;;;;;;8.30;1.20;;;11.60;99.90;;;;;;20490916;29;20039;-44
2024/03/29 16:15:29;;;;;;;5.53;1.10;;;11.50;99.90;;;;;;20499284;29;20051;-40
2024/03/29 16:25:31;;;;;;;7.78;1.20;;;11.20;99.90;;;;;;20498261;29;20067;-42
2024/03/29 16:35:34;;;;;;;8.68;1.40;;;10.90;99.90;;;;;;20452217;29;20110;-43
2024/03/29 16:45:36;;;;;;;8.63;1.45;;;10.60;99.90;;;;;;20488725;29;20035;-44
2024/03/29 16:55:38;;;;;;;11.73;1.35;;;10.00;99.90;;;;;;20476173;29;20039;-41
2024/03/29 17:05:40;;;;;;;9.98;1.25;;;9.60;99.90;;;;;;20478930;28;20118;-42
2024/03/29 17:15:43;;;;;;;8.65;1.33;;;9.60;99.90;;;;;;20503263;29;20090;-40
2024/03/29 17:25:47;;;;;;;15.98;2.08;;;9.30;99.90;;;;;;20502301;29;20074;-43
2024/03/29 17:35:49;;;;;;;18.77;2.22;;;9.00;99.90;;;;;;20484718;29;20422;-39
2024/03/29 17:45:51;;;;;;;22.75;2.40;;;9.00;99.90;;;;;;20475212;29;20550;-44
2024/03/29 17:55:53;;;;;;;23.70;2.88;;;8.90;99.90;;;;;;20422384;29;20031;-44
2024/03/29 18:05:55;;;;;;;24.00;2.85;;;8.80;99.90;;;;;;20432650;29;20039;-42
2024/03/29 18:15:57;;;;;;;22.45;3.65;;;8.70;99.90;;;;;;20406447;29;20516;-40
2024/03/29 18:26:00;;;;;;;18.98;2.72;;;8.60;99.90;;;;;;20471374;29;20105;-43
2024/03/29 18:36:02;;;;;;;18.05;2.42;;;8.40;99.90;;;;;;20498314;29;20094;-40
2024/03/29 18:46:06;;;;;;;23.38;3.03;;;8.30;99.90;;;;;;20458370;29;20040;-44
2024/03/29 18:56:08;;;;;;;25.48;3.85;;;8.20;99.90;;;;;;20473515;29;20027;-43
2024/03/29 19:06:13;;;;;;;26.02;4.00;;;8.00;99.90;;;;;;20497176;29;20023;-42
2024/03/29 19:16:15;;;;;;;40.53;5.20;;;8.00;99.90;;;;;;20497434;29;20035;-41
2024/03/29 19:26:17;;;;;;;49.55;13.10;;;8.00;99.90;;;;;;20506454;28;20111;-42
2024/03/29 19:36:18;;;;;;;46.72;6.25;;;8.00;99.90;;;;;;20478565;29;20027;-41
2024/03/29 19:46:21;;;;;;;49.03;8.60;;;8.10;99.90;;;;;;20504924;29;20554;-45
2024/03/29 19:56:23;;;;;;;48.05;6.57;;;8.10;99.90;;;;;;20468796;29;20094;-40
2024/03/29 20:06:25;;;;;;;52.40;5.85;;;8.20;99.90;;;;;;20508602;29;20067;-41
2024/03/29 20:16:27;;;;;;;41.15;4.38;;;8.30;99.90;;;;;;20457924;29;20055;-41
2024/03/29 20:26:29;;;;;;;45.05;5.63;;;8.30;99.90;;;;;;20484030;29;20451;-40
2024/03/29 20:36:31;;;;;;;42.85;5.88;;;8.30;99.90;;;;;;20505319;28;20035;-43
2024/03/29 20:46:33;;;;;;;38.42;5.15;;;8.30;99.90;;;;;;20461636;29;20036;-43
2024/03/29 20:56:38;;;;;;;34.30;4.90;;;8.40;99.90;;;;;;20466855;29;20475;-43
2024/03/29 21:06:43;;;;;;;49.67;6.22;;;8.50;99.90;;;;;;20502798;29;20058;-41
2024/03/29 21:16:45;;;;;;;38.03;4.07;;;8.40;99.90;;;;;;20503288;29;20376;-43
2024/03/29 21:26:47;;;;;;;41.25;4.95;;;8.70;99.90;;;;;;20503300;29;20047;-43
2024/03/29 21:36:49;;;;;;;36.53;4.35;;;8.70;99.90;;;;;;20469747;29;20071;-41
2024/03/29 21:46:51;;;;;;;31.73;4.03;;;8.70;99.90;;;;;;20491723;28;20419;-43
2024/03/29 21:56:53;;;;;;;34.80;4.20;;;8.60;99.90;;;;;;20463084;29;20035;-43
2024/03/29 22:06:56;;;;;;;47.67;5.68;;;8.60;99.90;;;;;;20499815;29;20040;-42
2024/03/29 22:16:58;;;;;;;36.00;4.80;;;8.40;99.90;;;;;;20445816;29;20040;-40
2024/03/29 22:27:00;;;;;;;39.70;4.28;;;8.30;99.90;;;;;;20480549;29;20051;-42
2024/03/29 22:37:08;;;;;;;34.50;4.57;;;8.40;99.90;;;;;;20498606;29;20039;-40
2024/03/29 22:47:10;;;;;;;37.95;4.43;;;7.90;99.90;;;;;;20439605;29;20439;-42
2024/03/29 22:57:12;;;;;;;35.13;4.30;;;7.40;99.90;;;;;;20422609;29;20439;-42
2024/03/29 23:07:14;;;;;;;46.85;5.85;;;7.00;99.90;;;;;;20456349;29;20060;-41
2024/03/29 23:17:17;;;;;;;56.90;6.13;;;6.80;99.90;;;;;;20458803;29;20442;-41
2024/03/29 23:27:22;;;;;;;53.42;7.47;;;6.60;99.90;;;;;;20477768;29;20106;-40
2024/03/29 23:37:24;;;;;;;48.20;5.95;;;6.40;99.90;;;;;;20470600;29;20031;-40
2024/03/29 23:47:27;;;;;;;62.67;6.30;;;6.40;99.90;;;;;;20430955;29;20139;-42
2024/03/29 23:57:29;;;;;;;55.85;6.40;;;6.40;99.90;;;;;;20494300;29;20364;-40
